sensor_id;sensor_type;location;lat;lon;timestamp;pressure;altitude;pressure_sealevel;temperature;humidity
29549;BME280;16487;53.094;8.800;2023-04-26T00:01:40;100837.50;;;4.47;100.00
29549;BME280;16487;53.094;8.800;2023-04-26T00:04:08;100815.41;;;4.54;100.00
29549;BME280;16487;53.094;8.800;2023-04-26T00:06:37;100816.22;;;4.51;100.00
29549;BME280;16487;53.094;8.800;2023-04-26T00:09:04;100814.22;;;4.52;100.00
29549;BME280;16487;53.094;8.800;2023-04-26T00:11:32;100803.22;;;4.48;100.00
29549;BME280;16487;53.094;8.800;2023-04-26T00:13:59;100796.13;;;4.51;100.00
29549;BME280;16487;53.094;8.800;2023-04-26T00:16:26;100791.81;;;4.46;100.00
29549;BME280;16487;53.094;8.800;2023-04-26T00:18:54;100779.22;;;4.38;100.00
29549;BME280;16487;53.094;8.800;2023-04-26T00:21:21;100768.97;;;4.35;100.00
29549;BME280;16487;53.094;8.800;2023-04-26T00:23:50;100758.00;;;4.25;100.00
29549;BME280;16487;53.094;8.800;2023-04-26T00:26:17;100757.59;;;4.23;100.00
29549;BME280;16487;53.094;8.800;2023-04-26T00:28:44;100744.59;;;4.23;100.00
29549;BME280;16487;53.094;8.800;2023-04-26T00:31:13;100728.84;;;4.20;100.00
29549;BME280;16487;53.094;8.800;2023-04-26T00:33:41;100726.94;;;4.10;100.00
29549;BME280;16487;53.094;8.800;2023-04-26T00:36:08;100711.56;;;4.09;100.00
29549;BME280;16487;53.094;8.800;2023-04-26T00:38:35;100705.25;;;4.09;100.00
29549;BME280;16487;53.094;8.800;2023-04-26T00:41:04;100695.81;;;4.06;100.00
29549;BME280;16487;53.094;8.800;2023-04-26T00:43:32;100696.59;;;4.14;100.00
29549;BME280;16487;53.094;8.800;2023-04-26T00:45:59;100699.34;;;4.10;100.00
29549;BME280;16487;53.094;8.800;2023-04-26T00:48:27;100696.63;;;4.03;100.00
29549;BME280;16487;53.094;8.800;2023-04-26T00:50:55;100693.50;;;3.98;100.00
29549;BME280;16487;53.094;8.800;2023-04-26T00:53:22;100687.19;;;3.97;100.00
29549;BME280;16487;53.094;8.800;2023-04-26T00:55:50;100688.38;;;3.96;100.00
29549;BME280;16487;53.094;8.800;2023-04-26T00:58:19;100674.59;;;3.93;100.00
29549;BME280;16487;53.094;8.800;2023-04-26T01:00:46;100667.13;;;3.90;100.00
29549;BME280;16487;53.094;8.800;2023-04-26T01:03:14;100659.25;;;3.85;100.00
29549;BME280;16487;53.094;8.800;2023-04-26T01:05:42;100651.78;;;3.89;100.00
29549;BME280;16487;53.094;8.800;2023-04-26T01:08:09;100649.81;;;3.93;100.00
29549;BME280;16487;53.094;8.800;2023-04-26T01:10:39;100644.69;;;3.91;100.00
29549;BME280;16487;53.094;8.800;2023-04-26T01:13:07;100647.03;;;3.96;100.00
29549;BME280;16487;53.094;8.800;2023-04-26T01:15:35;100648.59;;;3.97;100.00
29549;BME280;16487;53.094;8.800;2023-04-26T01:18:03;100656.44;;;3.99;100.00
29549;BME280;16487;53.094;8.800;2023-04-26T01:20:33;100660.81;;;3.96;100.00
29549;BME280;16487;53.094;8.800;2023-04-26T01:23:02;100664.72;;;4.02;100.00
29549;BME280;16487;53.094;8.800;2023-04-26T01:25:29;100666.66;;;4.02;100.00
29549;BME280;16487;53.094;8.800;2023-04-26T01:27:56;100669.84;;;4.00;100.00
29549;BME280;16487;53.094;8.800;2023-04-26T01:30:24;100668.66;;;4.01;100.00
29549;BME280;16487;53.094;8.800;2023-04-26T01:32:52;100660.41;;;4.01;100.00
29549;BME280;16487;53.094;8.800;2023-04-26T01:35:20;100655.25;;;4.10;100.00
29549;BME280;16487;53.094;8.800;2023-04-26T01:37:47;100654.81;;;4.15;100.00
29549;BME280;16487;53.094;8.800;2023-04-26T01:40:16;100656.75;;;4.22;100.00
29549;BME280;16487;53.094;8.800;2023-04-26T01:42:43;100657.94;;;4.17;100.00
29549;BME280;16487;53.094;8.800;2023-04-26T01:45:11;100666.59;;;4.19;100.00
29549;BME280;16487;53.094;8.800;2023-04-26T01:47:57;100662.63;;;4.27;100.00
29549;BME280;16487;53.094;8.800;2023-04-26T01:50:24;100660.25;;;4.29;100.00
29549;BME280;16487;53.094;8.800;2023-04-26T01:52:51;100672.06;;;4.26;100.00
29549;BME280;16487;53.094;8.800;2023-04-26T01:55:20;100667.75;;;4.25;100.00
29549;BME280;16487;53.094;8.800;2023-04-26T01:57:48;100669.69;;;4.28;100.00
29549;BME280;16487;53.094;8.800;2023-04-26T02:00:15;100663.38;;;4.31;100.00
29549;BME280;16487;53.094;8.800;2023-04-26T02:02:42;100663.38;;;4.31;100.00
29549;BME280;16487;53.094;8.800;2023-04-26T02:05:10;100664.19;;;4.28;100.00
29549;BME280;16487;53.094;8.800;2023-04-26T02:07:37;100665.00;;;4.25;100.00
29549;BME280;16487;53.094;8.800;2023-04-26T02:10:06;100672.09;;;4.19;100.00
29549;BME280;16487;53.094;8.800;2023-04-26T02:12:35;100661.53;;;4.07;100.00
29549;BME280;16487;53.094;8.800;2023-04-26T02:15:12;100656.44;;;4.02;100.00
29549;BME280;16487;53.094;8.800;2023-04-26T02:17:39;100638.75;;;4.00;100.00
29549;BME280;16487;53.094;8.800;2023-04-26T02:20:08;100636.03;;;3.93;100.00
29549;BME280;16487;53.094;8.800;2023-04-26T02:22:35;100622.22;;;3.93;100.00
29549;BME280;16487;53.094;8.800;2023-04-26T02:25:03;100606.88;;;3.92;100.00
29549;BME280;16487;53.094;8.800;2023-04-26T02:27:32;100605.31;;;3.87;100.00
29549;BME280;16487;53.094;8.800;2023-04-26T02:30:01;100595.47;;;3.83;100.00
29549;BME280;16487;53.094;8.800;2023-04-26T02:32:29;100588.03;;;3.76;100.00
29549;BME280;16487;53.094;8.800;2023-04-26T02:34:57;100571.50;;;3.76;100.00
29549;BME280;16487;53.094;8.800;2023-04-26T02:37:24;100573.91;;;3.67;100.00
29549;BME280;16487;53.094;8.800;2023-04-26T02:39:52;100554.25;;;3.69;100.00
29549;BME280;16487;53.094;8.800;2023-04-26T02:42:19;100547.13;;;3.71;100.00
29549;BME280;16487;53.094;8.800;2023-04-26T02:44:47;100536.94;;;3.65;100.00
29549;BME280;16487;53.094;8.800;2023-04-26T02:47:16;100516.09;;;3.60;100.00
29549;BME280;16487;53.094;8.800;2023-04-26T02:49:43;100507.03;;;3.60;100.00
29549;BME280;16487;53.094;8.800;2023-04-26T02:52:11;100491.34;;;3.53;100.00
29549;BME280;16487;53.094;8.800;2023-04-26T02:54:38;100485.03;;;3.53;100.00
29549;BME280;16487;53.094;8.800;2023-04-26T02:57:05;100470.47;;;3.52;100.00
29549;BME280;16487;53.094;8.800;2023-04-26T02:59:33;100471.69;;;3.47;100.00
29549;BME280;16487;53.094;8.800;2023-04-26T03:02:00;100466.59;;;3.46;100.00
29549;BME280;16487;53.094;8.800;2023-04-26T03:04:30;100454.75;;;3.53;100.00
29549;BME280;16487;53.094;8.800;2023-04-26T03:06:59;100449.66;;;3.47;100.00
29549;BME280;16487;53.094;8.800;2023-04-26T03:09:26;100440.97;;;3.49;100.00
29549;BME280;16487;53.094;8.800;2023-04-26T03:11:54;100444.09;;;3.58;100.00
29549;BME280;16487;53.094;8.800;2023-04-26T03:14:22;100443.25;;;3.61;100.00
29549;BME280;16487;53.094;8.800;2023-04-26T03:16:49;100431.81;;;3.66;100.00
29549;BME280;16487;53.094;8.800;2023-04-26T03:19:17;100442.03;;;3.69;100.00
29549;BME280;16487;53.094;8.800;2023-04-26T03:21:47;100435.34;;;3.70;100.00
29549;BME280;16487;53.094;8.800;2023-04-26T03:24:14;100433.00;;;3.69;100.00
29549;BME280;16487;53.094;8.800;2023-04-26T03:26:42;100437.66;;;3.75;100.00
29549;BME280;16487;53.094;8.800;2023-04-26T03:29:10;100441.63;;;3.71;100.00
29549;BME280;16487;53.094;8.800;2023-04-26T03:31:37;100440.91;;;3.63;100.00
29549;BME280;16487;53.094;8.800;2023-04-26T03:34:05;100439.34;;;3.59;100.00
29549;BME280;16487;53.094;8.800;2023-04-26T03:36:32;100433.06;;;3.58;100.00
29549;BME280;16487;53.094;8.800;2023-04-26T03:39:02;100425.22;;;3.53;100.00
29549;BME280;16487;53.094;8.800;2023-04-26T03:41:30;100418.91;;;3.56;100.00
29549;BME280;16487;53.094;8.800;2023-04-26T03:43:59;100424.84;;;3.51;100.00
29549;BME280;16487;53.094;8.800;2023-04-26T03:46:27;100425.97;;;3.57;100.00
29549;BME280;16487;53.094;8.800;2023-04-26T03:48:55;100421.22;;;3.61;100.00
29549;BME280;16487;53.094;8.800;2023-04-26T03:51:24;100420.44;;;3.61;100.00
29549;BME280;16487;53.094;8.800;2023-04-26T03:53:51;100414.94;;;3.57;100.00
29549;BME280;16487;53.094;8.800;2023-04-26T03:56:20;100417.00;;;3.46;100.00
29549;BME280;16487;53.094;8.800;2023-04-26T03:58:48;100409.94;;;3.38;100.00
29549;BME280;16487;53.094;8.800;2023-04-26T04:01:16;100404.06;;;3.36;100.00
29549;BME280;16487;53.094;8.800;2023-04-26T04:03:44;100400.97;;;3.30;100.00
29549;BME280;16487;53.094;8.800;2023-04-26T04:06:11;100401.00;;;3.27;100.00
29549;BME280;16487;53.094;8.800;2023-04-26T04:08:39;100392.75;;;3.20;100.00
29549;BME280;16487;53.094;8.800;2023-04-26T04:11:06;100388.44;;;3.19;100.00
29549;BME280;16487;53.094;8.800;2023-04-26T04:13:37;100380.56;;;3.17;100.00
29549;BME280;16487;53.094;8.800;2023-04-26T04:16:05;100371.94;;;3.12;100.00
29549;BME280;16487;53.094;8.800;2023-04-26T04:18:32;100371.53;;;3.17;100.00
29549;BME280;16487;53.094;8.800;2023-04-26T04:21:00;100364.84;;;3.18;100.00
29549;BME280;16487;53.094;8.800;2023-04-26T04:23:27;100370.34;;;3.18;100.00
29549;BME280;16487;53.094;8.800;2023-04-26T04:25:54;100362.88;;;3.18;100.00
29549;BME280;16487;53.094;8.800;2023-04-26T04:28:22;100367.97;;;3.20;100.00
29549;BME280;16487;53.094;8.800;2023-04-26T04:30:50;100365.63;;;3.22;100.00
29549;BME280;16487;53.094;8.800;2023-04-26T04:33:18;100362.38;;;3.34;100.00
29549;BME280;16487;53.094;8.800;2023-04-26T04:35:45;100356.03;;;3.44;100.00
29549;BME280;16487;53.094;8.800;2023-04-26T04:38:12;100355.97;;;3.51;100.00
29549;BME280;16487;53.094;8.800;2023-04-26T04:40:40;100355.91;;;3.58;100.00
29549;BME280;16487;53.094;8.800;2023-04-26T04:43:07;100365.31;;;3.64;100.00
29549;BME280;16487;53.094;8.800;2023-04-26T04:45:35;100373.56;;;3.64;100.00
29549;BME280;16487;53.094;8.800;2023-04-26T04:48:05;100379.47;;;3.66;100.00
29549;BME280;16487;53.094;8.800;2023-04-26T04:50:34;100390.50;;;3.63;100.00
29549;BME280;16487;53.094;8.800;2023-04-26T04:53:01;100391.69;;;3.65;100.00
29549;BME280;16487;53.094;8.800;2023-04-26T04:55:29;100397.97;;;3.66;100.00
29549;BME280;16487;53.094;8.800;2023-04-26T04:57:56;100407.84;;;3.60;100.00
29549;BME280;16487;53.094;8.800;2023-04-26T05:00:24;100405.50;;;3.58;100.00
29549;BME280;16487;53.094;8.800;2023-04-26T05:02:58;100401.56;;;3.59;100.00
29549;BME280;16487;53.094;8.800;2023-04-26T05:05:28;100417.66;;;3.64;100.00
29549;BME280;16487;53.094;8.800;2023-04-26T05:07:55;100403.84;;;3.71;100.00
29549;BME280;16487;53.094;8.800;2023-04-26T05:10:22;100416.03;;;3.74;100.00
29549;BME280;16487;53.094;8.800;2023-04-26T05:12:50;100416.75;;;3.78;100.00
29549;BME280;16487;53.094;8.800;2023-04-26T05:15:17;100421.41;;;3.91;100.00
29549;BME280;16487;53.094;8.800;2023-04-26T05:17:44;100427.22;;;4.00;100.00
29549;BME280;16487;53.094;8.800;2023-04-26T05:20:18;100437.47;;;4.03;100.00
29549;BME280;16487;53.094;8.800;2023-04-26T05:22:47;100440.50;;;4.12;100.00
29549;BME280;16487;53.094;8.800;2023-04-26T05:25:14;100452.56;;;4.32;100.00
29549;BME280;16487;53.094;8.800;2023-04-26T05:27:42;100450.34;;;4.57;100.00
29549;BME280;16487;53.094;8.800;2023-04-26T05:30:26;100474.13;;;4.82;100.00
29549;BME280;16487;53.094;8.800;2023-04-26T05:33:09;100502.72;;;5.02;100.00
29549;BME280;16487;53.094;8.800;2023-04-26T05:36:08;100540.59;;;5.01;100.00
29549;BME280;16487;53.094;8.800;2023-04-26T05:38:37;100560.19;;;5.14;100.00
29549;BME280;16487;53.094;8.800;2023-04-26T05:41:05;100590.16;;;5.15;100.00
29549;BME280;16487;53.094;8.800;2023-04-26T05:43:32;100636.72;;;5.17;100.00
29549;BME280;16487;53.094;8.800;2023-04-26T05:45:59;100652.50;;;5.16;100.00
29549;BME280;16487;53.094;8.800;2023-04-26T05:48:27;100684.06;;;5.19;100.00
29549;BME280;16487;53.094;8.800;2023-04-26T05:50:55;100699.31;;;5.34;100.00
29549;BME280;16487;53.094;8.800;2023-04-26T05:53:22;100724.59;;;5.32;100.00
29549;BME280;16487;53.094;8.800;2023-04-26T05:55:51;100742.97;;;5.49;100.00
29549;BME280;16487;53.094;8.800;2023-04-26T05:58:18;100772.91;;;5.58;100.00
29549;BME280;16487;53.094;8.800;2023-04-26T06:00:46;100780.63;;;5.77;100.00
29549;BME280;16487;53.094;8.800;2023-04-26T06:03:14;100798.94;;;5.64;100.00
29549;BME280;16487;53.094;8.800;2023-04-26T06:05:42;100814.56;;;5.85;100.00
29549;BME280;16487;53.094;8.800;2023-04-26T06:08:09;100832.72;;;5.86;100.00
29549;BME280;16487;53.094;8.800;2023-04-26T06:10:37;100839.72;;;6.01;100.00
29549;BME280;16487;53.094;8.800;2023-04-26T06:13:06;100860.28;;;5.96;100.00
29549;BME280;16487;53.094;8.800;2023-04-26T06:15:36;100862.28;;;5.96;100.00
29549;BME280;16487;53.094;8.800;2023-04-26T06:18:04;100883.31;;;5.82;100.00
29549;BME280;16487;53.094;8.800;2023-04-26T06:20:32;100881.84;;;5.67;100.00
29549;BME280;16487;53.094;8.800;2023-04-26T06:22:59;100881.06;;;5.67;100.00
29549;BME280;16487;53.094;8.800;2023-04-26T06:25:27;100891.28;;;5.70;100.00
29549;BME280;16487;53.094;8.800;2023-04-26T06:27:54;100879.44;;;5.73;100.00
29549;BME280;16487;53.094;8.800;2023-04-26T06:30:23;100902.72;;;5.75;100.00
29549;BME280;16487;53.094;8.800;2023-04-26T06:32:51;100924.41;;;5.84;100.00
29549;BME280;16487;53.094;8.800;2023-04-26T06:35:18;100934.66;;;5.83;100.00
29549;BME280;16487;53.094;8.800;2023-04-26T06:37:45;100955.22;;;5.86;100.00
29549;BME280;16487;53.094;8.800;2023-04-26T06:40:14;100969.78;;;5.94;100.00
29549;BME280;16487;53.094;8.800;2023-04-26T06:42:42;100997.84;;;5.92;100.00
29549;BME280;16487;53.094;8.800;2023-04-26T06:45:46;100989.91;;;5.94;100.00
29549;BME280;16487;53.094;8.800;2023-04-26T06:48:14;100988.41;;;5.86;100.00
29549;BME280;16487;53.094;8.800;2023-04-26T06:50:41;100977.75;;;5.81;100.00
29549;BME280;16487;53.094;8.800;2023-04-26T06:53:08;100980.13;;;5.79;100.00
29549;BME280;16487;53.094;8.800;2023-04-26T06:55:36;100958.38;;;5.85;100.00
29549;BME280;16487;53.094;8.800;2023-04-26T06:58:03;100967.84;;;5.87;100.00
29549;BME280;16487;53.094;8.800;2023-04-26T07:00:30;100960.63;;;6.00;100.00
29549;BME280;16487;53.094;8.800;2023-04-26T07:02:59;100979.22;;;5.96;100.00
29549;BME280;16487;53.094;8.800;2023-04-26T07:05:26;100982.78;;;6.00;100.00
29549;BME280;16487;53.094;8.800;2023-04-26T07:07:54;100991.41;;;6.09;100.00
29549;BME280;16487;53.094;8.800;2023-04-26T07:10:21;101004.09;;;6.03;100.00
29549;BME280;16487;53.094;8.800;2023-04-26T07:12:48;100997.63;;;6.20;100.00
29549;BME280;16487;53.094;8.800;2023-04-26T07:15:15;101032.81;;;6.23;100.00
29549;BME280;16487;53.094;8.800;2023-04-26T07:17:43;101049.78;;;6.25;100.00
29549;BME280;16487;53.094;8.800;2023-04-26T07:20:12;101054.78;;;6.44;100.00
29549;BME280;16487;53.094;8.800;2023-04-26T07:22:39;101079.25;;;6.49;100.00
29549;BME280;16487;53.094;8.800;2023-04-26T07:25:07;101106.84;;;6.60;100.00
29549;BME280;16487;53.094;8.800;2023-04-26T07:27:34;101113.84;;;6.78;100.00
29549;BME280;16487;53.094;8.800;2023-04-26T07:30:02;101143.03;;;6.90;100.00
29549;BME280;16487;53.094;8.800;2023-04-26T07:32:30;101178.53;;;7.06;100.00
29549;BME280;16487;53.094;8.800;2023-04-26T07:34:57;101220.38;;;7.22;100.00
29549;BME280;16487;53.094;8.800;2023-04-26T07:37:26;101252.34;;;7.33;100.00
29549;BME280;16487;53.094;8.800;2023-04-26T07:39:53;101279.50;;;7.56;100.00
29549;BME280;16487;53.094;8.800;2023-04-26T07:42:20;101280.88;;;7.78;100.00
29549;BME280;16487;53.094;8.800;2023-04-26T07:44:48;101288.19;;;7.98;100.00
29549;BME280;16487;53.094;8.800;2023-04-26T07:47:15;101344.41;;;8.09;100.00
29549;BME280;16487;53.094;8.800;2023-04-26T07:49:42;101363.19;;;8.36;100.00
29549;BME280;16487;53.094;8.800;2023-04-26T07:52:13;101399.25;;;8.76;100.00
29549;BME280;16487;53.094;8.800;2023-04-26T07:54:44;101437.81;;;9.04;100.00
29549;BME280;16487;53.094;8.800;2023-04-26T07:57:11;101457.09;;;8.85;100.00
29549;BME280;16487;53.094;8.800;2023-04-26T07:59:39;101470.81;;;8.69;100.00
29549;BME280;16487;53.094;8.800;2023-04-26T08:02:06;101468.94;;;8.59;100.00
29549;BME280;16487;53.094;8.800;2023-04-26T08:04:33;101467.00;;;8.49;100.00
29549;BME280;16487;53.094;8.800;2023-04-26T08:07:01;101484.88;;;8.51;100.00
29549;BME280;16487;53.094;8.800;2023-04-26T08:09:29;101483.94;;;8.65;100.00
29549;BME280;16487;53.094;8.800;2023-04-26T08:11:57;101503.53;;;8.47;100.00
29549;BME280;16487;53.094;8.800;2023-04-26T08:14:25;101481.91;;;8.21;100.00
29549;BME280;16487;53.094;8.800;2023-04-26T08:16:52;101474.25;;;8.39;100.00
29549;BME280;16487;53.094;8.800;2023-04-26T08:19:19;101482.22;;;8.37;100.00
29549;BME280;16487;53.094;8.800;2023-04-26T08:21:47;101497.28;;;8.40;100.00
29549;BME280;16487;53.094;8.800;2023-04-26T08:24:14;101504.13;;;8.21;100.00
29549;BME280;16487;53.094;8.800;2023-04-26T08:26:41;101505.50;;;8.50;100.00
29549;BME280;16487;53.094;8.800;2023-04-26T08:29:10;101526.59;;;8.44;100.00
29549;BME280;16487;53.094;8.800;2023-04-26T08:31:37;101539.09;;;8.66;100.00
29549;BME280;16487;53.094;8.800;2023-04-26T08:34:05;101549.94;;;8.94;100.00
29549;BME280;16487;53.094;8.800;2023-04-26T08:36:35;101578.75;;;8.70;100.00
29549;BME280;16487;53.094;8.800;2023-04-26T08:39:02;101572.25;;;8.87;100.00
29549;BME280;16487;53.094;8.800;2023-04-26T08:41:34;101587.06;;;9.14;100.00
29549;BME280;16487;53.094;8.800;2023-04-26T08:44:03;101638.00;;;9.08;100.00
29549;BME280;16487;53.094;8.800;2023-04-26T08:46:35;101688.66;;;9.30;100.00
29549;BME280;16487;53.094;8.800;2023-04-26T08:49:11;101731.78;;;9.52;100.00
29549;BME280;16487;53.094;8.800;2023-04-26T08:51:40;101729.84;;;9.45;100.00
29549;BME280;16487;53.094;8.800;2023-04-26T08:54:09;101748.38;;;9.14;100.00
29549;BME280;16487;53.094;8.800;2023-04-26T08:56:38;101753.78;;;8.81;100.00
29549;BME280;16487;53.094;8.800;2023-04-26T08:59:08;101750.22;;;8.80;100.00
29549;BME280;16487;53.094;8.800;2023-04-26T09:01:38;101729.81;;;9.01;100.00
29549;BME280;16487;53.094;8.800;2023-04-26T09:04:06;101743.41;;;8.88;100.00
29549;BME280;16487;53.094;8.800;2023-04-26T09:06:34;101750.94;;;8.91;100.00
29549;BME280;16487;53.094;8.800;2023-04-26T09:09:02;101742.09;;;9.07;100.00
29549;BME280;16487;53.094;8.800;2023-04-26T09:11:30;101761.88;;;9.12;100.00
29549;BME280;16487;53.094;8.800;2023-04-26T09:13:57;101782.81;;;9.35;100.00
29549;BME280;16487;53.094;8.800;2023-04-26T09:16:33;101785.75;;;10.02;100.00
29549;BME280;16487;53.094;8.800;2023-04-26T09:19:02;101790.22;;;10.33;100.00
29549;BME280;16487;53.094;8.800;2023-04-26T09:21:30;101795.13;;;9.34;100.00
29549;BME280;16487;53.094;8.800;2023-04-26T09:23:58;101797.28;;;9.08;100.00
29549;BME280;16487;53.094;8.800;2023-04-26T09:26:26;101789.94;;;8.77;100.00
29549;BME280;16487;53.094;8.800;2023-04-26T09:29:11;101789.25;;;8.56;100.00
29549;BME280;16487;53.094;8.800;2023-04-26T09:31:40;101778.47;;;8.68;100.00
29549;BME280;16487;53.094;8.800;2023-04-26T09:34:10;101798.06;;;8.26;100.00
29549;BME280;16487;53.094;8.800;2023-04-26T09:36:49;101776.66;;;8.30;100.00
29549;BME280;16487;53.094;8.800;2023-04-26T09:39:30;101768.63;;;8.50;100.00
29549;BME280;16487;53.094;8.800;2023-04-26T09:41:58;101762.97;;;8.74;100.00
29549;BME280;16487;53.094;8.800;2023-04-26T09:44:25;101773.47;;;8.32;100.00
29549;BME280;16487;53.094;8.800;2023-04-26T09:47:00;101785.41;;;8.11;100.00
29549;BME280;16487;53.094;8.800;2023-04-26T09:49:31;101786.19;;;8.22;100.00
29549;BME280;16487;53.094;8.800;2023-04-26T09:52:03;101791.38;;;8.24;100.00
29549;BME280;16487;53.094;8.800;2023-04-26T09:54:37;101808.72;;;8.45;100.00
29549;BME280;16487;53.094;8.800;2023-04-26T09:57:05;101806.41;;;8.26;100.00
29549;BME280;16487;53.094;8.800;2023-04-26T09:59:43;101810.03;;;7.95;100.00
29549;BME280;16487;53.094;8.800;2023-04-26T10:02:16;101793.34;;;8.12;100.00
29549;BME280;16487;53.094;8.800;2023-04-26T10:04:46;101776.28;;;8.25;100.00
29549;BME280;16487;53.094;8.800;2023-04-26T10:07:16;101750.56;;;7.96;100.00
29549;BME280;16487;53.094;8.800;2023-04-26T10:09:45;101731.88;;;8.00;100.00
29549;BME280;16487;53.094;8.800;2023-04-26T10:12:13;101724.31;;;8.18;100.00
29549;BME280;16487;53.094;8.800;2023-04-26T10:14:41;101755.28;;;8.92;100.00
29549;BME280;16487;53.094;8.800;2023-04-26T10:17:09;101792.06;;;9.17;100.00
29549;BME280;16487;53.094;8.800;2023-04-26T10:19:40;101793.69;;;9.11;100.00
29549;BME280;16487;53.094;8.800;2023-04-26T10:22:15;101810.69;;;9.72;100.00
29549;BME280;16487;53.094;8.800;2023-04-26T10:24:44;101830.94;;;9.79;100.00
29549;BME280;16487;53.094;8.800;2023-04-26T10:27:11;101845.63;;;10.61;100.00
29549;BME280;16487;53.094;8.800;2023-04-26T10:30:04;101856.78;;;11.21;100.00
29549;BME280;16487;53.094;8.800;2023-04-26T10:32:32;101852.25;;;12.04;100.00
29549;BME280;16487;53.094;8.800;2023-04-26T10:35:09;101866.66;;;11.79;100.00
29549;BME280;16487;53.094;8.800;2023-04-26T10:38:07;101868.56;;;11.86;100.00
29549;BME280;16487;53.094;8.800;2023-04-26T10:40:37;101903.78;;;9.71;100.00
29549;BME280;16487;53.094;8.800;2023-04-26T10:43:28;101840.56;;;7.98;100.00
29549;BME280;16487;53.094;8.800;2023-04-26T10:45:57;101782.28;;;7.84;100.00
29549;BME280;16487;53.094;8.800;2023-04-26T10:48:44;101747.47;;;7.38;100.00
29549;BME280;16487;53.094;8.800;2023-04-26T10:51:11;101660.75;;;6.70;100.00
29549;BME280;16487;53.094;8.800;2023-04-26T10:53:58;101532.16;;;6.64;100.00
29549;BME280;16487;53.094;8.800;2023-04-26T10:56:50;101439.44;;;7.04;100.00
29549;BME280;16487;53.094;8.800;2023-04-26T10:59:21;101422.63;;;7.43;100.00
29549;BME280;16487;53.094;8.800;2023-04-26T11:02:09;101464.03;;;8.29;100.00
29549;BME280;16487;53.094;8.800;2023-04-26T11:04:52;101504.34;;;8.48;100.00
29549;BME280;16487;53.094;8.800;2023-04-26T11:07:36;101512.03;;;8.74;100.00
29549;BME280;16487;53.094;8.800;2023-04-26T11:10:08;101549.72;;;9.15;100.00
29549;BME280;16487;53.094;8.800;2023-04-26T11:12:36;101569.97;;;9.16;100.00
29549;BME280;16487;53.094;8.800;2023-04-26T11:15:08;101578.06;;;9.03;100.00
29549;BME280;16487;53.094;8.800;2023-04-26T11:17:38;101568.44;;;9.11;100.00
29549;BME280;16487;53.094;8.800;2023-04-26T11:20:08;101582.88;;;9.37;100.00
29549;BME280;16487;53.094;8.800;2023-04-26T11:22:38;101632.28;;;9.93;100.00
29549;BME280;16487;53.094;8.800;2023-04-26T11:25:07;101703.50;;;9.94;100.00
29549;BME280;16487;53.094;8.800;2023-04-26T11:27:35;101736.91;;;9.94;100.00
29549;BME280;16487;53.094;8.800;2023-04-26T11:30:03;101748.03;;;10.31;100.00
29549;BME280;16487;53.094;8.800;2023-04-26T11:32:31;101780.28;;;10.92;100.00
29549;BME280;16487;53.094;8.800;2023-04-26T11:35:00;101798.44;;;11.53;100.00
29549;BME280;16487;53.094;8.800;2023-04-26T11:37:27;101818.91;;;11.74;100.00
29549;BME280;16487;53.094;8.800;2023-04-26T11:39:56;101829.47;;;11.86;100.00
29549;BME280;16487;53.094;8.800;2023-04-26T11:42:25;101831.94;;;12.23;100.00
29549;BME280;16487;53.094;8.800;2023-04-26T11:44:52;101833.00;;;12.09;100.00
29549;BME280;16487;53.094;8.800;2023-04-26T11:47:20;101846.44;;;11.72;100.00
29549;BME280;16487;53.094;8.800;2023-04-26T11:49:50;101847.66;;;11.94;100.00
29549;BME280;16487;53.094;8.800;2023-04-26T11:52:17;101835.78;;;13.27;100.00
29549;BME280;16487;53.094;8.800;2023-04-26T11:54:45;101827.47;;;13.88;100.00
29549;BME280;16487;53.094;8.800;2023-04-26T11:57:12;101845.22;;;11.96;100.00
29549;BME280;16487;53.094;8.800;2023-04-26T11:59:44;101870.81;;;11.14;100.00
29549;BME280;16487;53.094;8.800;2023-04-26T12:02:12;101854.03;;;9.76;100.00
29549;BME280;16487;53.094;8.800;2023-04-26T12:04:39;101829.31;;;9.31;100.00
29549;BME280;16487;53.094;8.800;2023-04-26T12:07:07;101819.97;;;9.03;100.00
29549;BME280;16487;53.094;8.800;2023-04-26T12:09:39;101815.31;;;8.83;100.00
29549;BME280;16487;53.094;8.800;2023-04-26T12:12:07;101791.97;;;8.66;100.00
29549;BME280;16487;53.094;8.800;2023-04-26T12:14:36;101789.22;;;8.59;100.00
29549;BME280;16487;53.094;8.800;2023-04-26T12:17:05;101787.59;;;8.72;100.00
29549;BME280;16487;53.094;8.800;2023-04-26T12:19:33;101799.44;;;8.80;100.00
29549;BME280;16487;53.094;8.800;2023-04-26T12:22:01;101801.84;;;8.78;100.00
29549;BME280;16487;53.094;8.800;2023-04-26T12:24:29;101802.59;;;8.85;100.00
29549;BME280;16487;53.094;8.800;2023-04-26T12:26:57;101811.63;;;9.03;100.00
29549;BME280;16487;53.094;8.800;2023-04-26T12:29:27;101833.06;;;9.06;100.00
29549;BME280;16487;53.094;8.800;2023-04-26T12:31:55;101839.88;;;8.98;100.00
29549;BME280;16487;53.094;8.800;2023-04-26T12:34:24;101835.97;;;8.78;100.00
29549;BME280;16487;53.094;8.800;2023-04-26T12:36:51;101826.03;;;8.84;100.00
29549;BME280;16487;53.094;8.800;2023-04-26T12:39:18;101830.44;;;8.71;100.00
29549;BME280;16487;53.094;8.800;2023-04-26T12:41:46;101807.53;;;8.53;100.00
29549;BME280;16487;53.094;8.800;2023-04-26T12:44:13;101805.75;;;8.91;100.00
29549;BME280;16487;53.094;8.800;2023-04-26T12:46:41;101832.59;;;9.18;100.00
29549;BME280;16487;53.094;8.800;2023-04-26T12:49:08;101838.59;;;9.65;100.00
29549;BME280;16487;53.094;8.800;2023-04-26T12:51:37;101862.88;;;10.12;100.00
29549;BME280;16487;53.094;8.800;2023-04-26T12:54:05;101870.63;;;10.31;100.00
29549;BME280;16487;53.094;8.800;2023-04-26T12:56:32;101881.03;;;10.27;100.00
29549;BME280;16487;53.094;8.800;2023-04-26T12:59:00;101880.47;;;10.76;100.00
29549;BME280;16487;53.094;8.800;2023-04-26T13:01:27;101881.41;;;10.96;100.00